sensor_id;sensor_type;location;lat;lon;timestamp;P1;durP1;ratioP1;P2;durP2;ratioP2
19877;SDS011;10101;52.204;9.910;2023-08-30T00:01:11;2.57;;;1.90;;
19877;SDS011;10101;52.204;9.910;2023-08-30T00:03:38;2.20;;;2.00;;
19877;SDS011;10101;52.204;9.910;2023-08-30T00:06:05;2.67;;;2.10;;
19877;SDS011;10101;52.204;9.910;2023-08-30T00:08:32;3.37;;;2.30;;
19877;SDS011;10101;52.204;9.910;2023-08-30T00:11:00;2.60;;;2.10;;
19877;SDS011;10101;52.204;9.910;2023-08-30T00:13:30;4.47;;;2.10;;
19877;SDS011;10101;52.204;9.910;2023-08-30T00:15:57;2.93;;;1.93;;
19877;SDS011;10101;52.204;9.910;2023-08-30T00:18:24;2.93;;;1.73;;
19877;SDS011;10101;52.204;9.910;2023-08-30T00:20:50;1.93;;;1.73;;
19877;SDS011;10101;52.204;9.910;2023-08-30T00:23:18;2.90;;;2.00;;
19877;SDS011;10101;52.204;9.910;2023-08-30T00:25:45;2.20;;;1.80;;
19877;SDS011;10101;52.204;9.910;2023-08-30T00:28:11;3.50;;;2.07;;
19877;SDS011;10101;52.204;9.910;2023-08-30T00:30:39;2.33;;;1.80;;
19877;SDS011;10101;52.204;9.910;2023-08-30T00:33:06;2.10;;;1.90;;
19877;SDS011;10101;52.204;9.910;2023-08-30T00:35:33;4.13;;;2.30;;
19877;SDS011;10101;52.204;9.910;2023-08-30T00:37:59;3.00;;;1.80;;
19877;SDS011;10101;52.204;9.910;2023-08-30T00:40:28;3.90;;;2.20;;
19877;SDS011;10101;52.204;9.910;2023-08-30T00:42:56;3.23;;;1.97;;
19877;SDS011;10101;52.204;9.910;2023-08-30T00:45:23;3.00;;;2.10;;
19877;SDS011;10101;52.204;9.910;2023-08-30T00:47:51;2.10;;;1.90;;
19877;SDS011;10101;52.204;9.910;2023-08-30T00:50:18;1.90;;;1.80;;
19877;SDS011;10101;52.204;9.910;2023-08-30T00:52:45;2.43;;;1.80;;
19877;SDS011;10101;52.204;9.910;2023-08-30T00:55:11;3.30;;;1.80;;
19877;SDS011;10101;52.204;9.910;2023-08-30T00:57:40;5.47;;;2.10;;
19877;SDS011;10101;52.204;9.910;2023-08-30T01:00:07;2.23;;;1.80;;
19877;SDS011;10101;52.204;9.910;2023-08-30T01:02:36;2.50;;;1.77;;
19877;SDS011;10101;52.204;9.910;2023-08-30T01:05:05;2.03;;;1.50;;
19877;SDS011;10101;52.204;9.910;2023-08-30T01:07:33;1.63;;;1.53;;
19877;SDS011;10101;52.204;9.910;2023-08-30T01:10:00;2.77;;;1.47;;
19877;SDS011;10101;52.204;9.910;2023-08-30T01:12:29;2.97;;;1.53;;
19877;SDS011;10101;52.204;9.910;2023-08-30T01:15:00;2.03;;;1.80;;
19877;SDS011;10101;52.204;9.910;2023-08-30T01:17:32;2.00;;;1.80;;
19877;SDS011;10101;52.204;9.910;2023-08-30T01:20:00;3.30;;;2.00;;
19877;SDS011;10101;52.204;9.910;2023-08-30T01:22:39;2.80;;;1.70;;
19877;SDS011;10101;52.204;9.910;2023-08-30T01:25:14;2.57;;;1.90;;
19877;SDS011;10101;52.204;9.910;2023-08-30T01:27:47;2.03;;;1.83;;
19877;SDS011;10101;52.204;9.910;2023-08-30T01:30:16;2.80;;;2.00;;
19877;SDS011;10101;52.204;9.910;2023-08-30T01:32:45;6.20;;;2.03;;
19877;SDS011;10101;52.204;9.910;2023-08-30T01:35:12;2.37;;;2.00;;
19877;SDS011;10101;52.204;9.910;2023-08-30T01:37:42;2.17;;;1.90;;
19877;SDS011;10101;52.204;9.910;2023-08-30T01:40:10;2.10;;;1.80;;
19877;SDS011;10101;52.204;9.910;2023-08-30T01:42:39;3.57;;;2.23;;
19877;SDS011;10101;52.204;9.910;2023-08-30T01:45:11;4.77;;;1.90;;
19877;SDS011;10101;52.204;9.910;2023-08-30T01:47:39;3.80;;;2.07;;
19877;SDS011;10101;52.204;9.910;2023-08-30T01:50:07;4.00;;;2.03;;
19877;SDS011;10101;52.204;9.910;2023-08-30T01:52:35;4.13;;;2.27;;
19877;SDS011;10101;52.204;9.910;2023-08-30T01:55:03;2.23;;;2.00;;
19877;SDS011;10101;52.204;9.910;2023-08-30T01:57:30;2.63;;;2.13;;
19877;SDS011;10101;52.204;9.910;2023-08-30T01:59:57;3.27;;;2.10;;
19877;SDS011;10101;52.204;9.910;2023-08-30T02:02:25;2.97;;;1.73;;
19877;SDS011;10101;52.204;9.910;2023-08-30T02:04:54;2.47;;;2.27;;
19877;SDS011;10101;52.204;9.910;2023-08-30T02:07:22;3.90;;;2.00;;
19877;SDS011;10101;52.204;9.910;2023-08-30T02:09:54;4.80;;;1.90;;
19877;SDS011;10101;52.204;9.910;2023-08-30T02:12:23;2.10;;;1.90;;
19877;SDS011;10101;52.204;9.910;2023-08-30T02:14:51;2.43;;;2.00;;
19877;SDS011;10101;52.204;9.910;2023-08-30T02:17:21;3.27;;;2.10;;
19877;SDS011;10101;52.204;9.910;2023-08-30T02:19:49;3.77;;;2.07;;
19877;SDS011;10101;52.204;9.910;2023-08-30T02:22:18;2.87;;;1.80;;
19877;SDS011;10101;52.204;9.910;2023-08-30T02:24:45;4.03;;;2.30;;
19877;SDS011;10101;52.204;9.910;2023-08-30T02:27:12;2.40;;;2.10;;
19877;SDS011;10101;52.204;9.910;2023-08-30T02:29:39;2.10;;;1.90;;
19877;SDS011;10101;52.204;9.910;2023-08-30T02:32:05;3.47;;;2.20;;
19877;SDS011;10101;52.204;9.910;2023-08-30T02:34:32;2.63;;;2.00;;
19877;SDS011;10101;52.204;9.910;2023-08-30T02:37:02;2.70;;;2.00;;
19877;SDS011;10101;52.204;9.910;2023-08-30T02:39:29;3.40;;;2.33;;
19877;SDS011;10101;52.204;9.910;2023-08-30T02:41:56;4.87;;;2.17;;
19877;SDS011;10101;52.204;9.910;2023-08-30T02:44:22;2.27;;;1.97;;
19877;SDS011;10101;52.204;9.910;2023-08-30T02:46:49;2.37;;;1.93;;
19877;SDS011;10101;52.204;9.910;2023-08-30T02:49:16;2.50;;;2.10;;
19877;SDS011;10101;52.204;9.910;2023-08-30T02:51:43;2.20;;;2.00;;
19877;SDS011;10101;52.204;9.910;2023-08-30T02:54:11;2.90;;;2.07;;
19877;SDS011;10101;52.204;9.910;2023-08-30T02:56:40;2.77;;;1.90;;
19877;SDS011;10101;52.204;9.910;2023-08-30T02:59:08;2.63;;;1.90;;
19877;SDS011;10101;52.204;9.910;2023-08-30T03:01:35;3.37;;;2.30;;
19877;SDS011;10101;52.204;9.910;2023-08-30T03:04:01;2.27;;;2.00;;
19877;SDS011;10101;52.204;9.910;2023-08-30T03:06:28;3.67;;;2.00;;
19877;SDS011;10101;52.204;9.910;2023-08-30T03:08:55;2.23;;;2.03;;
19877;SDS011;10101;52.204;9.910;2023-08-30T03:11:23;2.80;;;2.10;;
19877;SDS011;10101;52.204;9.910;2023-08-30T03:13:50;2.60;;;1.97;;
19877;SDS011;10101;52.204;9.910;2023-08-30T03:16:17;2.03;;;1.83;;
19877;SDS011;10101;52.204;9.910;2023-08-30T03:18:43;2.40;;;2.20;;
19877;SDS011;10101;52.204;9.910;2023-08-30T03:21:10;2.50;;;2.20;;
19877;SDS011;10101;52.204;9.910;2023-08-30T03:23:37;3.73;;;2.03;;
19877;SDS011;10101;52.204;9.910;2023-08-30T03:26:07;3.20;;;2.30;;
19877;SDS011;10101;52.204;9.910;2023-08-30T03:28:36;3.20;;;2.30;;
19877;SDS011;10101;52.204;9.910;2023-08-30T03:31:10;2.43;;;2.23;;
19877;SDS011;10101;52.204;9.910;2023-08-30T03:33:38;2.50;;;1.90;;
19877;SDS011;10101;52.204;9.910;2023-08-30T03:36:06;2.40;;;2.17;;
19877;SDS011;10101;52.204;9.910;2023-08-30T03:38:34;2.40;;;2.20;;
19877;SDS011;10101;52.204;9.910;2023-08-30T03:41:00;2.43;;;2.23;;
19877;SDS011;10101;52.204;9.910;2023-08-30T03:43:28;3.93;;;2.20;;
19877;SDS011;10101;52.204;9.910;2023-08-30T03:45:56;3.10;;;2.50;;
19877;SDS011;10101;52.204;9.910;2023-08-30T03:48:23;4.07;;;2.40;;
19877;SDS011;10101;52.204;9.910;2023-08-30T03:50:49;6.17;;;2.47;;
19877;SDS011;10101;52.204;9.910;2023-08-30T03:53:16;2.40;;;2.20;;
19877;SDS011;10101;52.204;9.910;2023-08-30T03:55:43;2.80;;;2.57;;
19877;SDS011;10101;52.204;9.910;2023-08-30T03:58:09;2.63;;;2.43;;
19877;SDS011;10101;52.204;9.910;2023-08-30T04:00:36;2.93;;;2.50;;
19877;SDS011;10101;52.204;9.910;2023-08-30T04:03:05;2.80;;;2.60;;
19877;SDS011;10101;52.204;9.910;2023-08-30T04:05:34;4.80;;;2.70;;
19877;SDS011;10101;52.204;9.910;2023-08-30T04:08:01;3.53;;;2.53;;
19877;SDS011;10101;52.204;9.910;2023-08-30T04:10:28;2.80;;;2.47;;
19877;SDS011;10101;52.204;9.910;2023-08-30T04:12:55;2.97;;;2.40;;
19877;SDS011;10101;52.204;9.910;2023-08-30T04:15:21;2.97;;;2.20;;
19877;SDS011;10101;52.204;9.910;2023-08-30T04:17:48;2.67;;;2.47;;
19877;SDS011;10101;52.204;9.910;2023-08-30T04:20:16;3.63;;;2.70;;
19877;SDS011;10101;52.204;9.910;2023-08-30T04:22:43;3.40;;;2.30;;
19877;SDS011;10101;52.204;9.910;2023-08-30T04:25:10;3.77;;;2.53;;
19877;SDS011;10101;52.204;9.910;2023-08-30T04:27:36;3.60;;;2.40;;
19877;SDS011;10101;52.204;9.910;2023-08-30T04:30:04;2.47;;;2.23;;
19877;SDS011;10101;52.204;9.910;2023-08-30T04:32:31;4.97;;;2.27;;
19877;SDS011;10101;52.204;9.910;2023-08-30T04:34:58;2.77;;;2.33;;
19877;SDS011;10101;52.204;9.910;2023-08-30T04:37:29;4.27;;;2.50;;
19877;SDS011;10101;52.204;9.910;2023-08-30T04:39:56;4.37;;;2.40;;
19877;SDS011;10101;52.204;9.910;2023-08-30T04:42:23;4.57;;;2.57;;
19877;SDS011;10101;52.204;9.910;2023-08-30T04:44:51;5.13;;;2.27;;
19877;SDS011;10101;52.204;9.910;2023-08-30T04:47:19;4.27;;;2.50;;
19877;SDS011;10101;52.204;9.910;2023-08-30T04:49:49;2.83;;;2.53;;
19877;SDS011;10101;52.204;9.910;2023-08-30T04:52:16;3.37;;;2.90;;
19877;SDS011;10101;52.204;9.910;2023-08-30T04:54:45;3.40;;;3.10;;
19877;SDS011;10101;52.204;9.910;2023-08-30T04:57:13;3.40;;;3.10;;
19877;SDS011;10101;52.204;9.910;2023-08-30T04:59:41;3.03;;;2.73;;
19877;SDS011;10101;52.204;9.910;2023-08-30T05:02:08;3.13;;;2.20;;
19877;SDS011;10101;52.204;9.910;2023-08-30T05:04:34;4.43;;;3.30;;
19877;SDS011;10101;52.204;9.910;2023-08-30T05:07:01;5.10;;;2.63;;
19877;SDS011;10101;52.204;9.910;2023-08-30T05:09:29;4.43;;;3.20;;
19877;SDS011;10101;52.204;9.910;2023-08-30T05:11:58;3.30;;;3.00;;
19877;SDS011;10101;52.204;9.910;2023-08-30T05:14:25;3.40;;;2.90;;
19877;SDS011;10101;52.204;9.910;2023-08-30T05:16:52;3.47;;;2.40;;
19877;SDS011;10101;52.204;9.910;2023-08-30T05:19:19;3.33;;;2.70;;
19877;SDS011;10101;52.204;9.910;2023-08-30T05:21:45;3.97;;;2.83;;
19877;SDS011;10101;52.204;9.910;2023-08-30T05:24:16;3.77;;;3.37;;
19877;SDS011;10101;52.204;9.910;2023-08-30T05:26:43;3.50;;;3.20;;
19877;SDS011;10101;52.204;9.910;2023-08-30T05:29:13;3.47;;;2.60;;
19877;SDS011;10101;52.204;9.910;2023-08-30T05:31:40;5.63;;;3.37;;
19877;SDS011;10101;52.204;9.910;2023-08-30T05:34:07;3.47;;;2.77;;
19877;SDS011;10101;52.204;9.910;2023-08-30T05:36:33;2.77;;;2.50;;
19877;SDS011;10101;52.204;9.910;2023-08-30T05:39:00;3.17;;;2.87;;
19877;SDS011;10101;52.204;9.910;2023-08-30T05:41:28;3.13;;;2.67;;
19877;SDS011;10101;52.204;9.910;2023-08-30T05:43:55;3.63;;;3.33;;
19877;SDS011;10101;52.204;9.910;2023-08-30T05:46:23;6.70;;;3.50;;
19877;SDS011;10101;52.204;9.910;2023-08-30T05:48:50;4.23;;;2.70;;
19877;SDS011;10101;52.204;9.910;2023-08-30T05:51:16;4.17;;;3.10;;
19877;SDS011;10101;52.204;9.910;2023-08-30T05:53:45;5.57;;;3.40;;
19877;SDS011;10101;52.204;9.910;2023-08-30T05:56:11;3.43;;;3.00;;
19877;SDS011;10101;52.204;9.910;2023-08-30T05:58:38;3.97;;;2.97;;
19877;SDS011;10101;52.204;9.910;2023-08-30T06:01:05;4.10;;;3.10;;
19877;SDS011;10101;52.204;9.910;2023-08-30T06:03:34;2.83;;;2.53;;
19877;SDS011;10101;52.204;9.910;2023-08-30T06:06:00;4.90;;;3.10;;
19877;SDS011;10101;52.204;9.910;2023-08-30T06:08:28;3.97;;;3.20;;
19877;SDS011;10101;52.204;9.910;2023-08-30T06:10:55;4.57;;;3.20;;
19877;SDS011;10101;52.204;9.910;2023-08-30T06:13:21;2.93;;;2.53;;
19877;SDS011;10101;52.204;9.910;2023-08-30T06:15:50;5.87;;;2.93;;
19877;SDS011;10101;52.204;9.910;2023-08-30T06:18:17;5.43;;;3.10;;
19877;SDS011;10101;52.204;9.910;2023-08-30T06:20:45;4.67;;;3.30;;
19877;SDS011;10101;52.204;9.910;2023-08-30T06:23:13;3.50;;;3.03;;
19877;SDS011;10101;52.204;9.910;2023-08-30T06:25:41;5.37;;;3.20;;
19877;SDS011;10101;52.204;9.910;2023-08-30T06:28:08;3.97;;;3.07;;
19877;SDS011;10101;52.204;9.910;2023-08-30T06:30:34;5.20;;;2.90;;
19877;SDS011;10101;52.204;9.910;2023-08-30T06:33:01;3.10;;;2.80;;
19877;SDS011;10101;52.204;9.910;2023-08-30T06:35:28;4.47;;;3.10;;
19877;SDS011;10101;52.204;9.910;2023-08-30T06:37:56;5.57;;;3.20;;
19877;SDS011;10101;52.204;9.910;2023-08-30T06:40:24;4.63;;;3.30;;
19877;SDS011;10101;52.204;9.910;2023-08-30T06:42:51;3.83;;;2.90;;
19877;SDS011;10101;52.204;9.910;2023-08-30T06:45:18;4.87;;;3.50;;
19877;SDS011;10101;52.204;9.910;2023-08-30T06:47:45;3.70;;;3.30;;
19877;SDS011;10101;52.204;9.910;2023-08-30T06:50:13;3.70;;;3.33;;
19877;SDS011;10101;52.204;9.910;2023-08-30T06:52:41;5.43;;;3.07;;
19877;SDS011;10101;52.204;9.910;2023-08-30T06:55:09;3.80;;;3.03;;
19877;SDS011;10101;52.204;9.910;2023-08-30T06:57:35;4.10;;;2.97;;
19877;SDS011;10101;52.204;9.910;2023-08-30T07:00:02;3.77;;;3.00;;
19877;SDS011;10101;52.204;9.910;2023-08-30T07:02:32;3.20;;;2.77;;
19877;SDS011;10101;52.204;9.910;2023-08-30T07:05:00;3.40;;;2.60;;
19877;SDS011;10101;52.204;9.910;2023-08-30T07:07:29;6.60;;;2.70;;
19877;SDS011;10101;52.204;9.910;2023-08-30T07:09:56;5.63;;;2.90;;
19877;SDS011;10101;52.204;9.910;2023-08-30T07:12:24;3.37;;;2.83;;
19877;SDS011;10101;52.204;9.910;2023-08-30T07:14:52;5.30;;;2.50;;
19877;SDS011;10101;52.204;9.910;2023-08-30T07:17:18;7.50;;;3.17;;
19877;SDS011;10101;52.204;9.910;2023-08-30T07:19:45;3.60;;;2.80;;
19877;SDS011;10101;52.204;9.910;2023-08-30T07:22:12;3.37;;;2.20;;
19877;SDS011;10101;52.204;9.910;2023-08-30T07:24:41;3.40;;;2.20;;
19877;SDS011;10101;52.204;9.910;2023-08-30T07:27:08;2.33;;;2.03;;
19877;SDS011;10101;52.204;9.910;2023-08-30T07:29:36;3.70;;;2.90;;
19877;SDS011;10101;52.204;9.910;2023-08-30T07:32:03;4.80;;;3.37;;
19877;SDS011;10101;52.204;9.910;2023-08-30T07:34:30;5.17;;;3.20;;
19877;SDS011;10101;52.204;9.910;2023-08-30T07:36:56;6.57;;;3.80;;
19877;SDS011;10101;52.204;9.910;2023-08-30T07:39:23;5.03;;;3.53;;
19877;SDS011;10101;52.204;9.910;2023-08-30T07:41:50;6.70;;;3.47;;
19877;SDS011;10101;52.204;9.910;2023-08-30T07:44:16;4.83;;;4.30;;
19877;SDS011;10101;52.204;9.910;2023-08-30T07:46:46;6.10;;;3.87;;
19877;SDS011;10101;52.204;9.910;2023-08-30T07:49:13;7.37;;;4.23;;
19877;SDS011;10101;52.204;9.910;2023-08-30T07:51:39;5.93;;;3.80;;
19877;SDS011;10101;52.204;9.910;2023-08-30T07:54:06;4.93;;;3.20;;
19877;SDS011;10101;52.204;9.910;2023-08-30T07:56:33;6.57;;;4.80;;
19877;SDS011;10101;52.204;9.910;2023-08-30T07:58:59;5.80;;;4.43;;
19877;SDS011;10101;52.204;9.910;2023-08-30T08:01:26;5.27;;;4.23;;
19877;SDS011;10101;52.204;9.910;2023-08-30T08:03:55;5.27;;;4.10;;
19877;SDS011;10101;52.204;9.910;2023-08-30T08:06:22;5.40;;;4.30;;
19877;SDS011;10101;52.204;9.910;2023-08-30T08:08:48;7.00;;;4.70;;
19877;SDS011;10101;52.204;9.910;2023-08-30T08:11:15;6.73;;;4.30;;
19877;SDS011;10101;52.204;9.910;2023-08-30T08:13:42;5.37;;;3.73;;
19877;SDS011;10101;52.204;9.910;2023-08-30T08:16:09;5.43;;;3.50;;
19877;SDS011;10101;52.204;9.910;2023-08-30T08:18:35;5.33;;;3.60;;
19877;SDS011;10101;52.204;9.910;2023-08-30T08:21:03;4.40;;;3.70;;
19877;SDS011;10101;52.204;9.910;2023-08-30T08:23:30;4.50;;;2.67;;
19877;SDS011;10101;52.204;9.910;2023-08-30T08:25:57;3.60;;;3.07;;
19877;SDS011;10101;52.204;9.910;2023-08-30T08:28:24;3.50;;;2.80;;
19877;SDS011;10101;52.204;9.910;2023-08-30T08:30:51;4.33;;;2.73;;
19877;SDS011;10101;52.204;9.910;2023-08-30T08:33:17;3.87;;;2.63;;
19877;SDS011;10101;52.204;9.910;2023-08-30T08:35:45;3.93;;;3.00;;
19877;SDS011;10101;52.204;9.910;2023-08-30T08:38:13;5.20;;;3.00;;
19877;SDS011;10101;52.204;9.910;2023-08-30T08:40:39;6.20;;;3.60;;
19877;SDS011;10101;52.204;9.910;2023-08-30T08:43:06;4.00;;;3.50;;
19877;SDS011;10101;52.204;9.910;2023-08-30T08:45:36;7.13;;;3.50;;
19877;SDS011;10101;52.204;9.910;2023-08-30T08:48:03;6.47;;;5.00;;
19877;SDS011;10101;52.204;9.910;2023-08-30T08:50:31;8.93;;;5.93;;
19877;SDS011;10101;52.204;9.910;2023-08-30T08:52:58;6.80;;;5.00;;
19877;SDS011;10101;52.204;9.910;2023-08-30T08:55:27;8.37;;;5.67;;
19877;SDS011;10101;52.204;9.910;2023-08-30T08:57:56;5.27;;;4.67;;
19877;SDS011;10101;52.204;9.910;2023-08-30T09:00:23;6.53;;;4.43;;
19877;SDS011;10101;52.204;9.910;2023-08-30T09:02:51;7.23;;;4.90;;
19877;SDS011;10101;52.204;9.910;2023-08-30T09:05:19;7.07;;;4.53;;
19877;SDS011;10101;52.204;9.910;2023-08-30T09:07:46;7.77;;;4.90;;
19877;SDS011;10101;52.204;9.910;2023-08-30T09:10:13;7.63;;;5.57;;
19877;SDS011;10101;52.204;9.910;2023-08-30T09:12:41;7.77;;;6.17;;
19877;SDS011;10101;52.204;9.910;2023-08-30T09:15:08;8.97;;;6.50;;
19877;SDS011;10101;52.204;9.910;2023-08-30T09:17:35;10.70;;;6.00;;
19877;SDS011;10101;52.204;9.910;2023-08-30T09:20:05;7.13;;;5.53;;
19877;SDS011;10101;52.204;9.910;2023-08-30T09:22:36;9.53;;;6.23;;
19877;SDS011;10101;52.204;9.910;2023-08-30T09:25:04;8.60;;;6.43;;
19877;SDS011;10101;52.204;9.910;2023-08-30T09:27:32;7.07;;;5.00;;
19877;SDS011;10101;52.204;9.910;2023-08-30T09:30:00;6.77;;;5.43;;
19877;SDS011;10101;52.204;9.910;2023-08-30T09:32:29;6.60;;;4.78;;
19877;SDS011;10101;52.204;9.910;2023-08-30T09:34:56;6.40;;;4.70;;
19877;SDS011;10101;52.204;9.910;2023-08-30T09:37:22;7.25;;;5.60;;
19877;SDS011;10101;52.204;9.910;2023-08-30T09:39:51;9.23;;;7.00;;
19877;SDS011;10101;52.204;9.910;2023-08-30T09:42:18;10.80;;;6.88;;
19877;SDS011;10101;52.204;9.910;2023-08-30T09:44:45;5.50;;;4.50;;
19877;SDS011;10101;52.204;9.910;2023-08-30T09:47:13;10.50;;;5.53;;
19877;SDS011;10101;52.204;9.910;2023-08-30T09:49:42;6.78;;;5.28;;
19877;SDS011;10101;52.204;9.910;2023-08-30T09:52:10;6.43;;;4.75;;
19877;SDS011;10101;52.204;9.910;2023-08-30T09:54:40;7.88;;;3.88;;
19877;SDS011;10101;52.204;9.910;2023-08-30T09:57:09;5.22;;;4.22;;
19877;SDS011;10101;52.204;9.910;2023-08-30T09:59:36;4.55;;;3.15;;
19877;SDS011;10101;52.204;9.910;2023-08-30T10:02:05;5.72;;;3.47;;
19877;SDS011;10101;52.204;9.910;2023-08-30T10:04:35;6.72;;;4.45;;
19877;SDS011;10101;52.204;9.910;2023-08-30T10:07:05;4.93;;;4.22;;
19877;SDS011;10101;52.204;9.910;2023-08-30T10:09:33;5.40;;;4.10;;
19877;SDS011;10101;52.204;9.910;2023-08-30T10:12:00;5.57;;;3.63;;
19877;SDS011;10101;52.204;9.910;2023-08-30T10:14:29;4.05;;;2.80;;
19877;SDS011;10101;52.204;9.910;2023-08-30T10:16:57;4.65;;;3.28;;
19877;SDS011;10101;52.204;9.910;2023-08-30T10:19:28;3.88;;;3.30;;
19877;SDS011;10101;52.204;9.910;2023-08-30T10:21:59;4.35;;;3.40;;
19877;SDS011;10101;52.204;9.910;2023-08-30T10:24:28;5.10;;;4.00;;
19877;SDS011;10101;52.204;9.910;2023-08-30T10:26:58;7.55;;;5.18;;
19877;SDS011;10101;52.204;9.910;2023-08-30T10:29:26;5.43;;;4.75;;
19877;SDS011;10101;52.204;9.910;2023-08-30T10:31:54;6.65;;;5.20;;
19877;SDS011;10101;52.204;9.910;2023-08-30T10:34:21;5.22;;;4.47;;
19877;SDS011;10101;52.204;9.910;2023-08-30T10:36:56;5.07;;;4.27;;
19877;SDS011;10101;52.204;9.910;2023-08-30T10:39:32;5.00;;;4.10;;
19877;SDS011;10101;52.204;9.910;2023-08-30T10:42:00;5.95;;;4.45;;
19877;SDS011;10101;52.204;9.910;2023-08-30T10:44:27;5.97;;;4.85;;
19877;SDS011;10101;52.204;9.910;2023-08-30T10:46:54;5.82;;;4.05;;
19877;SDS011;10101;52.204;9.910;2023-08-30T10:49:21;6.20;;;4.97;;
19877;SDS011;10101;52.204;9.910;2023-08-30T10:51:54;6.77;;;4.47;;
19877;SDS011;10101;52.204;9.910;2023-08-30T10:54:24;6.20;;;5.10;;
19877;SDS011;10101;52.204;9.910;2023-08-30T10:56:54;5.82;;;4.20;;
19877;SDS011;10101;52.204;9.910;2023-08-30T10:59:22;8.15;;;4.38;;
19877;SDS011;10101;52.204;9.910;2023-08-30T11:01:50;5.95;;;3.83;;
19877;SDS011;10101;52.204;9.910;2023-08-30T11:04:18;6.63;;;4.13;;
19877;SDS011;10101;52.204;9.910;2023-08-30T11:06:47;4.88;;;3.35;;
19877;SDS011;10101;52.204;9.910;2023-08-30T11:09:15;3.63;;;3.30;;
19877;SDS011;10101;52.204;9.910;2023-08-30T11:11:45;4.38;;;3.17;;
19877;SDS011;10101;52.204;9.910;2023-08-30T11:14:12;3.70;;;2.72;;
19877;SDS011;10101;52.204;9.910;2023-08-30T11:16:39;3.78;;;3.38;;
19877;SDS011;10101;52.204;9.910;2023-08-30T11:19:07;4.05;;;3.65;;
19877;SDS011;10101;52.204;9.910;2023-08-30T11:21:36;5.82;;;4.40;;
19877;SDS011;10101;52.204;9.910;2023-08-30T11:24:04;5.38;;;4.07;;
19877;SDS011;10101;52.204;9.910;2023-08-30T11:26:31;5.75;;;4.60;;
19877;SDS011;10101;52.204;9.910;2023-08-30T11:28:59;4.85;;;4.30;;
19877;SDS011;10101;52.204;9.910;2023-08-30T11:31:30;4.93;;;4.03;;
19877;SDS011;10101;52.204;9.910;2023-08-30T11:33:57;4.97;;;3.72;;
19877;SDS011;10101;52.204;9.910;2023-08-30T11:36:25;4.95;;;3.83;;
19877;SDS011;10101;52.204;9.910;2023-08-30T11:38:53;5.70;;;4.00;;
19877;SDS011;10101;52.204;9.910;2023-08-30T11:41:20;5.35;;;3.38;;
19877;SDS011;10101;52.204;9.910;2023-08-30T11:43:47;4.80;;;3.72;;
19877;SDS011;10101;52.204;9.910;2023-08-30T11:46:16;5.82;;;4.22;;
19877;SDS011;10101;52.204;9.910;2023-08-30T11:48:43;5.30;;;4.00;;
19877;SDS011;10101;52.204;9.910;2023-08-30T11:51:11;6.18;;;3.85;;
19877;SDS011;10101;52.204;9.910;2023-08-30T11:53:38;4.97;;;3.20;;
19877;SDS011;10101;52.204;9.910;2023-08-30T11:56:06;3.45;;;3.15;;
19877;SDS011;10101;52.204;9.910;2023-08-30T11:58:34;7.28;;;3.60;;
19877;SDS011;10101;52.204;9.910;2023-08-30T12:01:01;6.03;;;3.38;;
19877;SDS011;10101;52.204;9.910;2023-08-30T12:03:30;3.90;;;3.13;;
19877;SDS011;10101;52.204;9.910;2023-08-30T12:05:58;3.83;;;3.28;;
19877;SDS011;10101;52.204;9.910;2023-08-30T12:08:26;4.00;;;3.10;;
19877;SDS011;10101;52.204;9.910;2023-08-30T12:10:53;5.13;;;3.40;;
19877;SDS011;10101;52.204;9.910;2023-08-30T12:13:22;3.28;;;2.72;;
19877;SDS011;10101;52.204;9.910;2023-08-30T12:15:49;4.22;;;3.22;;
19877;SDS011;10101;52.204;9.910;2023-08-30T12:18:16;3.97;;;3.20;;
19877;SDS011;10101;52.204;9.910;2023-08-30T12:20:54;4.90;;;3.70;;
19877;SDS011;10101;52.204;9.910;2023-08-30T12:23:22;4.63;;;3.10;;
19877;SDS011;10101;52.204;9.910;2023-08-30T12:26:02;5.25;;;4.50;;
19877;SDS011;10101;52.204;9.910;2023-08-30T12:28:30;5.38;;;4.82;;
19877;SDS011;10101;52.204;9.910;2023-08-30T12:30:58;6.15;;;5.07;;
19877;SDS011;10101;52.204;9.910;2023-08-30T12:33:25;6.40;;;4.10;;
19877;SDS011;10101;52.204;9.910;2023-08-30T12:35:53;6.88;;;4.90;;
19877;SDS011;10101;52.204;9.910;2023-08-30T12:38:21;5.28;;;4.18;;
19877;SDS011;10101;52.204;9.910;2023-08-30T12:40:48;5.30;;;4.45;;
19877;SDS011;10101;52.204;9.910;2023-08-30T12:43:16;4.50;;;4.00;;
19877;SDS011;10101;52.204;9.910;2023-08-30T12:45:44;4.88;;;4.20;;
19877;SDS011;10101;52.204;9.910;2023-08-30T12:48:12;5.15;;;4.30;;
19877;SDS011;10101;52.204;9.910;2023-08-30T12:50:40;5.47;;;3.72;;
19877;SDS011;10101;52.204;9.910;2023-08-30T12:53:09;4.95;;;3.80;;
19877;SDS011;10101;52.204;9.910;2023-08-30T12:55:36;4.10;;;3.70;;
19877;SDS011;10101;52.204;9.910;2023-08-30T12:58:04;3.10;;;2.80;;
19877;SDS011;10101;52.204;9.910;2023-08-30T13:00:31;4.07;;;2.90;;
19877;SDS011;10101;52.204;9.910;2023-08-30T13:02:58;4.88;;;3.03;;
19877;SDS011;10101;52.204;9.910;2023-08-30T13:05:25;4.32;;;2.83;;
19877;SDS011;10101;52.204;9.910;2023-08-30T13:07:51;5.68;;;3.83;;
19877;SDS011;10101;52.204;9.910;2023-08-30T13:10:20;4.25;;;3.33;;
19877;SDS011;10101;52.204;9.910;2023-08-30T13:12:46;3.65;;;3.10;;
19877;SDS011;10101;52.204;9.910;2023-08-30T13:15:13;3.65;;;2.95;;
19877;SDS011;10101;52.204;9.910;2023-08-30T13:17:40;6.07;;;2.85;;
19877;SDS011;10101;52.204;9.910;2023-08-30T13:20:07;3.38;;;2.67;;
19877;SDS011;10101;52.204;9.910;2023-08-30T13:22:34;4.07;;;3.10;;
19877;SDS011;10101;52.204;9.910;2023-08-30T13:25:02;2.75;;;2.50;;
19877;SDS011;10101;52.204;9.910;2023-08-30T13:27:31;3.28;;;2.50;;
19877;SDS011;10101;52.204;9.910;2023-08-30T13:29:58;4.22;;;2.83;;
19877;SDS011;10101;52.204;9.910;2023-08-30T13:32:25;3.90;;;3.28;;
19877;SDS011;10101;52.204;9.910;2023-08-30T13:34:52;4.47;;;3.20;;
19877;SDS011;10101;52.204;9.910;2023-08-30T13:37:19;3.72;;;3.10;;
19877;SDS011;10101;52.204;9.910;2023-08-30T13:39:45;3.80;;;3.40;;
19877;SDS011;10101;52.204;9.910;2023-08-30T13:42:12;4.80;;;4.00;;
19877;SDS011;10101;52.204;9.910;2023-08-30T13:44:40;4.38;;;3.60;;
19877;SDS011;10101;52.204;9.910;2023-08-30T13:47:08;4.75;;;3.17;;
19877;SDS011;10101;52.204;9.910;2023-08-30T13:49:35;5.05;;;3.70;;
19877;SDS011;10101;52.204;9.910;2023-08-30T13:52:02;4.35;;;3.38;;
19877;SDS011;10101;52.204;9.910;2023-08-30T13:54:29;4.57;;;3.63;;
19877;SDS011;10101;52.204;9.910;2023-08-30T13:56:56;5.03;;;3.70;;
19877;SDS011;10101;52.204;9.910;2023-08-30T13:59:23;3.50;;;3.20;;
19877;SDS011;10101;52.204;9.910;2023-08-30T14:01:51;5.30;;;3.72;;
19877;SDS011;10101;52.204;9.910;2023-08-30T14:04:19;4.38;;;3.30;;
19877;SDS011;10101;52.204;9.910;2023-08-30T14:06:46;5.55;;;3.33;;
19877;SDS011;10101;52.204;9.910;2023-08-30T14:09:13;5.03;;;3.53;;
19877;SDS011;10101;52.204;9.910;2023-08-30T14:11:40;4.53;;;3.50;;
19877;SDS011;10101;52.204;9.910;2023-08-30T14:14:07;4.35;;;3.50;;
19877;SDS011;10101;52.204;9.910;2023-08-30T14:16:34;4.55;;;3.28;;
19877;SDS011;10101;52.204;9.910;2023-08-30T14:19:03;4.07;;;3.65;;
19877;SDS011;10101;52.204;9.910;2023-08-30T14:21:30;4.28;;;3.50;;
19877;SDS011;10101;52.204;9.910;2023-08-30T14:23:57;3.15;;;2.65;;
19877;SDS011;10101;52.204;9.910;2023-08-30T14:26:25;3.47;;;2.88;;
19877;SDS011;10101;52.204;9.910;2023-08-30T14:28:52;3.83;;;2.78;;
19877;SDS011;10101;52.204;9.910;2023-08-30T14:31:19;4.78;;;3.20;;
19877;SDS011;10101;52.204;9.910;2023-08-30T14:33:45;4.22;;;3.03;;
19877;SDS011;10101;52.204;9.910;2023-08-30T14:36:13;3.05;;;2.75;;
19877;SDS011;10101;52.204;9.910;2023-08-30T14:38:40;4.57;;;3.35;;
19877;SDS011;10101;52.204;9.910;2023-08-30T14:41:07;4.75;;;3.50;;
19877;SDS011;10101;52.204;9.910;2023-08-30T14:43:34;4.43;;;3.70;;
19877;SDS011;10101;52.204;9.910;2023-08-30T14:46:01;3.15;;;2.83;;
19877;SDS011;10101;52.204;9.910;2023-08-30T14:48:29;3.38;;;2.83;;
19877;SDS011;10101;52.204;9.910;2023-08-30T14:50:56;3.72;;;2.80;;